createdAt,value
2022-12-07T00:00:15.583Z,4.90
2022-12-07T00:01:15.530Z,6.30
2022-12-07T00:02:15.581Z,4.60
2022-12-07T00:03:15.610Z,5.20
2022-12-07T00:04:15.511Z,6.50
2022-12-07T00:05:15.520Z,4.70
2022-12-07T00:06:15.528Z,5.60
2022-12-07T00:07:15.469Z,5.60
2022-12-07T00:08:15.498Z,5.00
2022-12-07T00:09:15.540Z,5.70
2022-12-07T00:10:15.473Z,4.90
2022-12-07T00:11:16.700Z,4.90
2022-12-07T00:12:15.555Z,5.10
2022-12-07T00:13:15.385Z,4.80
2022-12-07T00:14:15.546Z,5.30
2022-12-07T00:15:15.530Z,5.40
2022-12-07T00:16:15.391Z,4.30
2022-12-07T00:17:15.359Z,5.50
2022-12-07T00:18:15.416Z,5.90
2022-12-07T00:19:15.333Z,5.50
2022-12-07T00:20:15.384Z,5.10
2022-12-07T00:21:15.178Z,4.80
2022-12-07T00:22:15.345Z,5.10
2022-12-07T00:23:15.158Z,5.20
2022-12-07T00:24:15.356Z,5.50
2022-12-07T00:25:15.285Z,5.10
2022-12-07T00:26:15.285Z,5.50
2022-12-07T00:27:15.255Z,5.10
2022-12-07T00:28:15.243Z,4.90
2022-12-07T00:29:15.230Z,5.00
2022-12-07T00:30:15.274Z,5.40
2022-12-07T00:31:15.288Z,5.30
2022-12-07T00:32:15.265Z,4.80
2022-12-07T00:33:15.192Z,4.80
2022-12-07T00:34:15.185Z,5.30
2022-12-07T00:35:15.184Z,5.30
2022-12-07T00:36:15.226Z,5.40
2022-12-07T00:37:15.157Z,5.00
2022-12-07T00:38:15.173Z,4.30
2022-12-07T00:39:15.123Z,4.60
2022-12-07T00:40:15.129Z,4.80
2022-12-07T00:41:15.169Z,5.00
2022-12-07T00:42:15.189Z,4.90
2022-12-07T00:43:15.084Z,5.00
2022-12-07T00:44:15.077Z,4.60
2022-12-07T00:45:15.070Z,4.20
2022-12-07T00:46:15.176Z,5.10
2022-12-07T00:47:15.068Z,4.90
2022-12-07T00:48:15.147Z,4.40
2022-12-07T00:49:15.077Z,4.80
2022-12-07T00:50:16.079Z,4.90
2022-12-07T00:51:15.023Z,4.20
2022-12-07T00:52:15.017Z,5.00
2022-12-07T00:53:14.994Z,5.10
2022-12-07T00:54:15.083Z,4.90
2022-12-07T00:55:14.990Z,5.40
2022-12-07T00:56:14.981Z,5.10
2022-12-07T00:57:14.967Z,4.80
2022-12-07T00:58:14.946Z,4.90
2022-12-07T00:59:14.796Z,4.70
2022-12-07T01:00:15.019Z,4.50
2022-12-07T01:01:15.007Z,4.20
2022-12-07T01:02:14.901Z,4.40
2022-12-07T01:03:14.978Z,5.30
2022-12-07T01:04:14.888Z,4.90
2022-12-07T01:05:14.928Z,5.10
2022-12-07T01:06:15.075Z,5.10
2022-12-07T01:07:14.908Z,4.30
2022-12-07T01:08:14.916Z,4.50
2022-12-07T01:09:14.839Z,5.30
2022-12-07T01:10:14.864Z,4.00
2022-12-07T01:11:14.782Z,5.30
2022-12-07T01:12:14.865Z,5.10
2022-12-07T01:13:14.867Z,3.90
2022-12-07T01:14:14.784Z,4.80
2022-12-07T01:15:16.441Z,4.60
2022-12-07T01:16:14.806Z,4.30
2022-12-07T01:17:14.852Z,4.90
2022-12-07T01:18:14.827Z,4.70
2022-12-07T01:19:14.743Z,4.70
2022-12-07T01:20:14.707Z,4.80
2022-12-07T01:21:14.707Z,4.60
2022-12-07T01:22:14.719Z,4.10
2022-12-07T01:23:14.686Z,4.60
2022-12-07T01:24:14.785Z,4.60
2022-12-07T01:25:14.716Z,4.60
2022-12-07T01:26:14.669Z,4.60
2022-12-07T01:27:14.677Z,4.40
2022-12-07T01:28:14.657Z,4.30
2022-12-07T01:29:14.639Z,4.40
2022-12-07T01:30:14.752Z,4.60
2022-12-07T01:31:14.730Z,4.30
2022-12-07T01:32:14.645Z,4.90
2022-12-07T01:33:14.600Z,4.00
2022-12-07T01:34:14.563Z,3.90
2022-12-07T01:35:14.469Z,4.10
2022-12-07T01:36:14.482Z,5.00
2022-12-07T01:37:14.621Z,4.80
2022-12-07T01:38:14.589Z,3.90
2022-12-07T01:39:14.534Z,4.70
2022-12-07T01:40:14.535Z,4.10
2022-12-07T01:41:14.514Z,4.60
2022-12-07T01:42:14.597Z,4.40
2022-12-07T01:43:14.490Z,4.30
2022-12-07T01:44:14.512Z,3.90
2022-12-07T01:45:15.617Z,4.80
2022-12-07T01:46:14.516Z,4.40
2022-12-07T01:47:14.519Z,5.00
2022-12-07T01:48:14.520Z,5.40
2022-12-07T01:49:14.448Z,4.70
2022-12-07T01:50:14.451Z,4.20
2022-12-07T01:51:14.437Z,4.10
2022-12-07T01:52:14.408Z,4.70
2022-12-07T01:53:14.387Z,4.30
2022-12-07T01:54:14.471Z,4.20
2022-12-07T01:55:14.411Z,4.40
2022-12-07T01:56:14.390Z,4.10
2022-12-07T01:57:14.340Z,4.70
2022-12-07T01:58:14.336Z,4.60
2022-12-07T01:59:14.343Z,4.70
2022-12-07T02:00:14.416Z,4.10
2022-12-07T02:01:14.296Z,3.80
2022-12-07T02:02:14.376Z,4.20
2022-12-07T02:03:14.259Z,4.10
2022-12-07T02:04:14.423Z,4.30
2022-12-07T02:05:14.275Z,4.40
2022-12-07T02:06:14.311Z,4.30
2022-12-07T02:07:14.276Z,4.50
2022-12-07T02:08:14.353Z,4.30
2022-12-07T02:09:14.238Z,4.30
2022-12-07T02:10:14.236Z,4.80
2022-12-07T02:11:14.196Z,4.00
2022-12-07T02:12:14.268Z,4.70
2022-12-07T02:13:14.082Z,4.40
2022-12-07T02:14:14.178Z,4.20
2022-12-07T02:15:14.193Z,4.20
2022-12-07T02:16:14.228Z,4.50
2022-12-07T02:17:14.156Z,4.50
2022-12-07T02:18:14.268Z,4.60
2022-12-07T02:19:14.128Z,4.50
2022-12-07T02:20:14.113Z,4.80
2022-12-07T02:21:14.124Z,4.80
2022-12-07T02:22:14.116Z,4.00
2022-12-07T02:23:14.087Z,4.70
2022-12-07T02:24:14.124Z,4.60
2022-12-07T02:25:14.089Z,4.50
2022-12-07T02:26:14.047Z,4.20
2022-12-07T02:27:14.070Z,4.40
2022-12-07T02:28:14.021Z,4.40
2022-12-07T02:29:13.993Z,4.70
2022-12-07T02:30:14.141Z,4.50
2022-12-07T02:31:14.104Z,4.00
2022-12-07T02:32:13.975Z,4.70
2022-12-07T02:33:14.015Z,4.40
2022-12-07T02:34:13.952Z,4.50
2022-12-07T02:35:13.964Z,4.10
2022-12-07T02:36:13.997Z,4.00
2022-12-07T02:37:13.928Z,4.30
2022-12-07T02:38:13.906Z,4.60
2022-12-07T02:39:13.930Z,4.70
2022-12-07T02:40:13.875Z,4.10
2022-12-07T02:41:13.876Z,4.30
2022-12-07T02:42:13.957Z,4.00
2022-12-07T02:43:13.729Z,4.00
2022-12-07T02:44:13.880Z,4.40
2022-12-07T02:45:13.709Z,4.60
2022-12-07T02:46:13.851Z,4.00
2022-12-07T02:47:13.808Z,4.50
2022-12-07T02:48:14.134Z,4.10
2022-12-07T02:49:13.783Z,4.20
2022-12-07T02:50:13.816Z,4.60
2022-12-07T02:51:13.761Z,4.60
2022-12-07T02:52:13.789Z,4.10
2022-12-07T02:53:13.753Z,4.20
2022-12-07T02:54:13.785Z,5.50
2022-12-07T02:55:13.757Z,5.50
2022-12-07T02:56:13.742Z,4.30
2022-12-07T02:57:13.699Z,5.30
2022-12-07T02:58:13.726Z,4.80
2022-12-07T02:59:13.703Z,4.80
2022-12-07T03:00:13.783Z,5.00
2022-12-07T03:01:13.705Z,3.80
2022-12-07T03:02:13.727Z,4.20
2022-12-07T03:03:13.745Z,3.70
2022-12-07T03:04:13.717Z,5.20
2022-12-07T03:05:13.646Z,5.20
2022-12-07T03:06:13.685Z,4.80
2022-12-07T03:07:13.651Z,4.40
2022-12-07T03:08:13.716Z,5.00
2022-12-07T03:09:13.566Z,4.30
2022-12-07T03:10:13.610Z,4.40
2022-12-07T03:11:16.404Z,4.40
2022-12-07T03:12:13.634Z,4.70
2022-12-07T03:13:13.581Z,3.80
2022-12-07T03:14:13.551Z,4.90
2022-12-07T03:15:13.589Z,4.30
2022-12-07T03:16:13.633Z,4.60
2022-12-07T03:17:13.525Z,4.00
2022-12-07T03:18:13.406Z,5.50
2022-12-07T03:19:13.550Z,4.20
2022-12-07T03:20:13.533Z,5.30
2022-12-07T03:21:13.538Z,5.10
2022-12-07T03:22:13.471Z,5.30
2022-12-07T03:23:13.451Z,4.40
2022-12-07T03:24:13.513Z,4.80
2022-12-07T03:25:13.403Z,4.20
2022-12-07T03:26:13.392Z,4.20
2022-12-07T03:27:13.416Z,4.80
2022-12-07T03:28:13.392Z,4.40
2022-12-07T03:29:13.362Z,4.90
2022-12-07T03:30:13.452Z,4.40
2022-12-07T03:31:13.421Z,4.90
2022-12-07T03:32:13.367Z,4.70
2022-12-07T03:33:13.312Z,5.00
2022-12-07T03:34:13.395Z,4.50
2022-12-07T03:35:13.329Z,4.80
2022-12-07T03:36:13.412Z,4.30
2022-12-07T03:37:13.303Z,3.80
2022-12-07T03:38:13.335Z,5.30
2022-12-07T03:39:13.264Z,5.20
2022-12-07T03:40:13.276Z,4.60
2022-12-07T03:41:13.230Z,4.80
2022-12-07T03:42:13.343Z,4.20
2022-12-07T03:43:13.170Z,4.30
2022-12-07T03:44:13.213Z,4.50
2022-12-07T03:45:13.074Z,4.60
2022-12-07T03:46:13.329Z,4.50
2022-12-07T03:47:13.202Z,4.90
2022-12-07T03:48:13.227Z,6.20
2022-12-07T03:49:13.224Z,4.20
2022-12-07T03:50:13.144Z,4.10
2022-12-07T03:51:13.166Z,3.90
2022-12-07T03:52:13.184Z,3.70
2022-12-07T03:53:13.132Z,4.90
2022-12-07T03:54:13.172Z,4.30
2022-12-07T03:55:13.097Z,4.50
2022-12-07T03:56:13.117Z,5.00
2022-12-07T03:57:13.128Z,4.40
2022-12-07T03:58:13.086Z,3.70
2022-12-07T03:59:13.073Z,3.90
2022-12-07T04:00:13.103Z,4.30
2022-12-07T04:01:13.042Z,5.40
2022-12-07T04:02:13.155Z,4.10
2022-12-07T04:03:13.114Z,4.40
2022-12-07T04:04:13.097Z,4.20
2022-12-07T04:05:13.005Z,4.30
2022-12-07T04:06:13.051Z,4.20
2022-12-07T04:07:13.013Z,5.60
2022-12-07T04:08:13.157Z,4.30
2022-12-07T04:09:12.976Z,4.60
2022-12-07T04:10:12.930Z,5.60
2022-12-07T04:11:13.060Z,4.50
2022-12-07T04:12:12.990Z,4.10
2022-12-07T04:13:12.900Z,4.90
2022-12-07T04:14:12.916Z,4.80
2022-12-07T04:15:12.893Z,5.70
2022-12-07T04:16:12.943Z,4.10
2022-12-07T04:17:12.885Z,5.10
2022-12-07T04:18:12.921Z,5.10
2022-12-07T04:19:12.915Z,4.30
2022-12-07T04:20:12.889Z,5.40
2022-12-07T04:21:12.848Z,5.10
2022-12-07T04:22:12.831Z,3.80
2022-12-07T04:23:12.837Z,4.70
2022-12-07T04:24:13.009Z,4.80
2022-12-07T04:25:12.831Z,4.40
2022-12-07T04:26:12.799Z,5.00
2022-12-07T04:27:12.787Z,5.60
2022-12-07T04:28:12.767Z,4.90
2022-12-07T04:29:12.772Z,5.40
2022-12-07T04:30:12.805Z,4.00
2022-12-07T04:31:12.778Z,3.80
2022-12-07T04:32:12.731Z,5.90
2022-12-07T04:33:12.745Z,5.10
2022-12-07T04:34:12.754Z,5.40
2022-12-07T04:35:12.671Z,4.50
2022-12-07T04:36:12.773Z,4.20
2022-12-07T04:37:12.660Z,4.60
2022-12-07T04:38:12.654Z,4.90
2022-12-07T04:39:12.665Z,5.20
2022-12-07T04:40:12.631Z,5.00
2022-12-07T04:41:12.647Z,6.20
2022-12-07T04:42:12.689Z,3.60
2022-12-07T04:43:12.611Z,4.70
2022-12-07T04:44:12.638Z,4.90
2022-12-07T04:45:12.580Z,4.70
2022-12-07T04:46:12.660Z,4.60
2022-12-07T04:47:12.715Z,5.10
2022-12-07T04:48:12.622Z,4.80
2022-12-07T04:49:12.628Z,5.20
2022-12-07T04:50:12.555Z,4.40
2022-12-07T04:51:12.613Z,4.60
2022-12-07T04:52:12.552Z,4.60
2022-12-07T04:53:12.502Z,5.60
2022-12-07T04:54:12.561Z,4.20
2022-12-07T04:55:12.511Z,5.10
2022-12-07T04:56:12.506Z,5.30
2022-12-07T04:57:12.469Z,3.50
2022-12-07T04:58:12.474Z,4.40
2022-12-07T04:59:12.448Z,4.60
2022-12-07T05:00:12.505Z,5.10
2022-12-07T05:01:12.517Z,5.10
2022-12-07T05:02:12.502Z,5.10
2022-12-07T05:03:12.411Z,5.50
2022-12-07T05:04:12.464Z,4.80
2022-12-07T05:05:12.424Z,5.40
2022-12-07T05:06:13.830Z,3.60
2022-12-07T05:07:12.374Z,4.30
2022-12-07T05:08:12.396Z,3.90
2022-12-07T05:09:12.397Z,4.80
2022-12-07T05:10:12.378Z,5.20
2022-12-07T05:11:12.354Z,4.40
2022-12-07T05:12:12.682Z,5.30
2022-12-07T05:13:43.988Z,3.20
2022-12-07T05:14:45.078Z,4.00
2022-12-07T05:15:45.940Z,4.20
2022-12-07T05:16:45.204Z,4.90
2022-12-07T05:17:45.167Z,5.20
2022-12-07T05:18:45.057Z,5.10
2022-12-07T05:19:45.067Z,4.80
2022-12-07T05:20:45.277Z,4.80
2022-12-07T05:21:45.085Z,5.20
2022-12-07T05:22:45.009Z,5.30
2022-12-07T05:23:45.086Z,5.80
2022-12-07T05:24:44.989Z,4.90
2022-12-07T05:25:44.978Z,3.90
2022-12-07T05:26:44.976Z,4.80
2022-12-07T05:27:44.971Z,4.50
2022-12-07T05:28:44.959Z,4.00
2022-12-07T05:29:44.995Z,4.90
2022-12-07T05:30:44.929Z,5.10
2022-12-07T05:31:44.963Z,4.70
2022-12-07T05:32:44.920Z,5.10
2022-12-07T05:33:44.916Z,4.60
2022-12-07T05:34:44.893Z,5.70
2022-12-07T05:35:44.989Z,5.10
2022-12-07T05:36:44.898Z,4.50
2022-12-07T05:37:44.876Z,4.40
2022-12-07T05:38:44.863Z,4.10
2022-12-07T05:39:44.832Z,5.50
2022-12-07T05:40:44.798Z,4.80
2022-12-07T05:41:44.875Z,5.40
2022-12-07T05:42:44.819Z,5.70
2022-12-07T05:43:44.815Z,4.80
2022-12-07T05:44:44.769Z,5.90
2022-12-07T05:45:44.816Z,4.60
2022-12-07T05:46:44.744Z,5.60
2022-12-07T05:47:46.064Z,5.50
2022-12-07T05:48:44.737Z,5.20
2022-12-07T05:49:44.748Z,6.00
2022-12-07T05:50:44.771Z,4.80
2022-12-07T05:51:44.708Z,4.60
2022-12-07T05:52:44.697Z,5.40
2022-12-07T05:53:44.766Z,5.80
2022-12-07T05:54:44.878Z,6.10
2022-12-07T05:55:44.712Z,5.40
2022-12-07T05:56:44.661Z,5.10
2022-12-07T05:57:44.640Z,4.40
2022-12-07T05:58:44.663Z,3.90
2022-12-07T05:59:44.791Z,3.90
2022-12-07T06:00:48.081Z,5.20
2022-12-07T06:01:44.707Z,4.00
2022-12-07T06:02:44.718Z,5.90
2022-12-07T06:03:44.603Z,4.50
2022-12-07T06:04:44.586Z,5.30
2022-12-07T06:05:44.725Z,4.70
2022-12-07T06:06:44.617Z,6.10
2022-12-07T06:07:44.625Z,4.60
2022-12-07T06:08:44.545Z,4.50
2022-12-07T06:09:44.520Z,4.30
2022-12-07T06:10:44.552Z,5.00
2022-12-07T06:11:44.577Z,4.40
2022-12-07T06:12:44.502Z,5.40
2022-12-07T06:13:47.315Z,5.50
2022-12-07T06:14:44.468Z,5.10
2022-12-07T06:15:44.499Z,4.60
2022-12-07T06:16:44.567Z,4.30
2022-12-07T06:17:44.512Z,4.70
2022-12-07T06:18:44.632Z,6.40
2022-12-07T06:19:44.430Z,5.80
2022-12-07T06:20:44.437Z,4.80
2022-12-07T06:21:44.426Z,5.30
2022-12-07T06:22:44.405Z,5.40
2022-12-07T06:23:44.434Z,5.70
2022-12-07T06:24:44.441Z,5.70
2022-12-07T06:25:44.386Z,5.30
2022-12-07T06:26:44.342Z,5.30
2022-12-07T06:27:44.309Z,4.90
2022-12-07T06:28:44.318Z,4.50
2022-12-07T06:29:44.393Z,5.40
2022-12-07T06:30:44.339Z,5.30
2022-12-07T06:31:44.351Z,4.70
2022-12-07T06:32:44.279Z,5.70
2022-12-07T06:33:44.271Z,5.90
2022-12-07T06:34:44.295Z,5.80
2022-12-07T06:35:44.350Z,5.50
2022-12-07T06:36:44.248Z,5.40
2022-12-07T06:37:44.526Z,4.80
2022-12-07T06:38:44.197Z,4.60
2022-12-07T06:39:44.299Z,4.00
2022-12-07T06:40:44.236Z,4.80
2022-12-07T06:41:44.337Z,5.20
2022-12-07T06:42:44.198Z,5.20
2022-12-07T06:43:44.171Z,4.90
2022-12-07T06:44:44.188Z,4.80
2022-12-07T06:45:44.277Z,5.00
2022-12-07T06:46:44.104Z,5.70
2022-12-07T06:47:44.963Z,5.10
2022-12-07T06:48:44.121Z,6.20
2022-12-07T06:49:44.115Z,4.70
2022-12-07T06:50:44.163Z,4.50
2022-12-07T06:51:44.070Z,4.70
2022-12-07T06:52:44.093Z,5.30
2022-12-07T06:53:44.113Z,5.40
2022-12-07T06:54:44.152Z,4.70
2022-12-07T06:55:44.043Z,6.00
2022-12-07T06:56:44.039Z,4.90
2022-12-07T06:57:44.033Z,5.00
2022-12-07T06:58:44.033Z,6.40
2022-12-07T06:59:44.068Z,4.90
2022-12-07T07:00:44.105Z,6.80
2022-12-07T07:01:43.922Z,4.60
2022-12-07T07:02:44.072Z,4.40
2022-12-07T07:03:43.973Z,5.40
2022-12-07T07:04:44.000Z,5.90
2022-12-07T07:05:44.020Z,5.00
2022-12-07T07:06:43.930Z,4.20
2022-12-07T07:08:05.447Z,5.20
2022-12-07T07:08:43.950Z,5.40
2022-12-07T07:09:44.016Z,4.80
2022-12-07T07:10:43.863Z,5.10
2022-12-07T07:11:43.982Z,4.30
2022-12-07T07:12:43.840Z,6.10
2022-12-07T07:13:43.824Z,5.00
2022-12-07T07:14:43.837Z,5.10
2022-12-07T07:15:43.877Z,6.40
2022-12-07T07:16:45.264Z,4.60
2022-12-07T07:17:43.958Z,4.60
2022-12-07T07:18:43.851Z,5.30
2022-12-07T07:19:43.821Z,5.00
2022-12-07T07:20:43.796Z,5.20
2022-12-07T07:21:43.743Z,5.40
2022-12-07T07:22:43.781Z,6.10
2022-12-07T07:23:43.793Z,5.30
2022-12-07T07:24:43.808Z,4.80
2022-12-07T07:25:43.747Z,5.20
2022-12-07T07:26:43.768Z,5.10
2022-12-07T07:27:43.770Z,6.20
2022-12-07T07:28:43.725Z,5.10
2022-12-07T07:29:43.739Z,4.70
2022-12-07T07:30:43.837Z,5.80
2022-12-07T07:31:43.713Z,5.60
2022-12-07T07:32:43.681Z,5.80
2022-12-07T07:33:43.705Z,5.00
2022-12-07T07:34:43.617Z,5.10
2022-12-07T07:35:43.796Z,4.70
2022-12-07T07:36:43.639Z,5.70
2022-12-07T07:37:43.589Z,4.70
2022-12-07T07:38:43.633Z,4.50
2022-12-07T07:39:43.558Z,5.80
2022-12-07T07:40:43.626Z,5.60
2022-12-07T07:41:43.673Z,5.20
2022-12-07T07:42:43.434Z,5.40
2022-12-07T07:43:43.571Z,6.40
2022-12-07T07:44:43.394Z,5.00
2022-12-07T07:45:43.571Z,6.10
2022-12-07T07:46:43.535Z,5.60
2022-12-07T07:47:43.581Z,4.90
2022-12-07T07:48:43.357Z,6.10
2022-12-07T07:49:47.919Z,6.80
2022-12-07T07:50:43.378Z,6.50
2022-12-07T07:51:43.519Z,7.60
2022-12-07T07:52:43.578Z,5.70
2022-12-07T07:53:43.357Z,6.50
2022-12-07T07:54:43.557Z,5.50
2022-12-07T07:55:43.501Z,6.00
2022-12-07T07:56:43.450Z,5.30
2022-12-07T07:57:43.459Z,7.00
2022-12-07T07:58:43.411Z,5.40
2022-12-07T07:59:43.478Z,5.80
2022-12-07T08:00:43.219Z,6.10
2022-12-07T08:01:43.478Z,6.30
2022-12-07T08:02:43.498Z,6.20
2022-12-07T08:03:43.383Z,7.00
2022-12-07T08:04:43.424Z,7.60
2022-12-07T08:05:43.493Z,6.90
2022-12-07T08:06:43.332Z,7.10
2022-12-07T08:07:43.426Z,6.00
2022-12-07T08:08:43.333Z,6.20
2022-12-07T08:09:43.352Z,6.70
2022-12-07T08:10:43.300Z,5.70
2022-12-07T08:11:43.373Z,7.10
2022-12-07T08:12:43.285Z,5.70
2022-12-07T08:13:43.260Z,6.60
2022-12-07T08:14:43.296Z,7.70
2022-12-07T08:15:43.273Z,6.90
2022-12-07T08:16:43.210Z,7.00
2022-12-07T08:17:43.287Z,6.20
2022-12-07T08:18:43.286Z,8.00
2022-12-07T08:19:43.162Z,8.80
2022-12-07T08:20:43.229Z,5.80
2022-12-07T08:21:43.179Z,5.10
2022-12-07T08:22:43.185Z,9.00
2022-12-07T08:23:43.207Z,6.80
2022-12-07T08:24:43.217Z,9.80
2022-12-07T08:25:43.168Z,7.60
2022-12-07T08:26:43.073Z,7.70
2022-12-07T08:27:43.135Z,8.30
2022-12-07T08:28:43.091Z,7.10
2022-12-07T08:29:43.199Z,9.40
2022-12-07T08:30:43.330Z,8.70
2022-12-07T08:31:43.143Z,7.10
2022-12-07T08:32:43.119Z,7.30
2022-12-07T08:33:43.004Z,7.70
2022-12-07T08:34:43.036Z,7.20
2022-12-07T08:35:43.155Z,7.90
2022-12-07T08:36:43.085Z,7.20
2022-12-07T08:37:43.000Z,6.80
2022-12-07T08:38:56.120Z,7.90
2022-12-07T08:39:42.930Z,7.40
2022-12-07T08:40:42.907Z,7.10
2022-12-07T08:41:43.027Z,8.10
2022-12-07T08:42:42.916Z,6.50
2022-12-07T08:43:42.913Z,8.60
2022-12-07T08:44:42.879Z,7.40
2022-12-07T08:45:42.875Z,7.60
2022-12-07T08:46:42.912Z,8.50
2022-12-07T08:47:42.958Z,7.10
2022-12-07T08:48:42.867Z,7.90
2022-12-07T08:49:42.854Z,7.70
2022-12-07T08:50:49.057Z,8.10
2022-12-07T08:51:42.888Z,8.70
2022-12-07T08:52:42.891Z,7.10
2022-12-07T08:53:42.933Z,6.60
2022-12-07T08:54:42.817Z,8.80
2022-12-07T08:55:42.807Z,7.00
2022-12-07T08:56:42.800Z,7.00
2022-12-07T08:57:42.810Z,8.30
2022-12-07T08:58:42.755Z,7.60
2022-12-07T08:59:42.837Z,7.70
2022-12-07T09:00:42.741Z,7.50
2022-12-07T09:01:42.864Z,8.60
2022-12-07T09:02:42.769Z,7.10
2022-12-07T09:03:42.732Z,8.00
2022-12-07T09:04:42.698Z,8.20
2022-12-07T09:05:42.882Z,8.50
2022-12-07T09:06:42.828Z,6.70
2022-12-07T09:07:42.717Z,9.10
2022-12-07T09:08:42.678Z,7.50
2022-12-07T09:09:42.672Z,8.00
2022-12-07T09:10:42.616Z,8.30
2022-12-07T09:11:42.648Z,6.40
2022-12-07T09:12:42.573Z,7.30
2022-12-07T09:13:42.464Z,7.10
2022-12-07T09:14:42.569Z,7.40
2022-12-07T09:15:42.606Z,8.00
2022-12-07T09:16:42.352Z,8.60
2022-12-07T09:17:42.626Z,8.10
2022-12-07T09:18:42.535Z,7.60
2022-12-07T09:19:42.503Z,9.60
2022-12-07T09:20:42.483Z,7.70
2022-12-07T09:21:42.504Z,6.70
2022-12-07T09:22:42.560Z,7.90
2022-12-07T09:23:42.547Z,6.20
2022-12-07T09:24:42.461Z,7.30
2022-12-07T09:25:42.435Z,6.50
2022-12-07T09:26:42.450Z,6.70
2022-12-07T09:27:42.402Z,7.90
2022-12-07T09:28:42.387Z,8.00
2022-12-07T09:29:42.493Z,6.70
2022-12-07T09:31:14.486Z,5.10
2022-12-07T09:31:42.493Z,7.30
2022-12-07T09:32:42.335Z,7.10
2022-12-07T09:33:42.368Z,7.80
2022-12-07T09:34:42.408Z,7.30
2022-12-07T09:35:42.421Z,7.80
2022-12-07T09:36:42.450Z,7.40
2022-12-07T09:37:42.351Z,9.00
2022-12-07T09:38:42.321Z,8.50
2022-12-07T09:39:48.228Z,6.00
2022-12-07T09:40:42.280Z,6.70
2022-12-07T09:41:42.556Z,7.00
2022-12-07T09:42:42.294Z,7.20
2022-12-07T09:43:42.059Z,6.30
2022-12-07T09:44:42.293Z,6.70
2022-12-07T09:45:47.155Z,6.90
2022-12-07T09:46:42.375Z,5.70
2022-12-07T09:47:42.287Z,6.70
2022-12-07T09:48:42.181Z,7.00
2022-12-07T09:49:42.182Z,6.60
2022-12-07T09:50:42.156Z,5.60
2022-12-07T09:51:42.150Z,6.50
2022-12-07T09:52:42.121Z,6.40
2022-12-07T09:53:42.203Z,6.30
2022-12-07T09:54:42.134Z,6.90
2022-12-07T09:55:42.136Z,8.60
2022-12-07T09:56:42.121Z,6.80
2022-12-07T09:57:42.123Z,6.60
2022-12-07T09:58:42.323Z,6.70
2022-12-07T09:59:42.123Z,6.80
2022-12-07T10:00:42.199Z,6.60
2022-12-07T10:01:42.146Z,6.40
2022-12-07T10:02:42.034Z,7.90
2022-12-07T10:03:42.136Z,6.60
2022-12-07T10:04:42.066Z,7.10
2022-12-07T10:05:42.068Z,6.70
2022-12-07T10:06:42.036Z,7.10
2022-12-07T10:07:42.048Z,6.50
2022-12-07T10:08:42.016Z,6.50
2022-12-07T10:09:41.971Z,8.10
2022-12-07T10:10:41.979Z,7.20
2022-12-07T10:11:42.081Z,6.60
2022-12-07T10:12:42.007Z,5.50
2022-12-07T10:13:41.929Z,7.30
2022-12-07T10:15:06.194Z,7.70
2022-12-07T10:15:41.954Z,5.70
2022-12-07T10:16:42.046Z,7.80
2022-12-07T10:17:42.315Z,6.70
2022-12-07T10:18:43.118Z,6.80
2022-12-07T10:19:41.923Z,6.50
2022-12-07T10:20:41.977Z,6.70
2022-12-07T10:21:41.905Z,7.90
2022-12-07T10:22:41.825Z,6.40
2022-12-07T10:23:41.980Z,6.50
2022-12-07T10:24:41.948Z,6.60
2022-12-07T10:25:41.788Z,6.00
2022-12-07T10:26:41.813Z,7.00
2022-12-07T10:27:41.773Z,6.60
2022-12-07T10:28:42.486Z,6.20
2022-12-07T10:29:41.862Z,5.80
2022-12-07T10:30:41.828Z,6.70
2022-12-07T10:31:41.860Z,6.90
2022-12-07T10:32:41.758Z,5.70
2022-12-07T10:33:41.736Z,5.90
2022-12-07T10:34:45.151Z,5.70
2022-12-07T10:35:41.728Z,5.80
2022-12-07T10:36:41.800Z,6.00
2022-12-07T10:37:41.712Z,7.00
2022-12-07T10:38:41.677Z,6.50
2022-12-07T10:39:41.596Z,7.10
2022-12-07T10:40:46.350Z,5.60
2022-12-07T10:41:41.706Z,7.40
2022-12-07T10:42:41.611Z,6.00
2022-12-07T10:43:41.651Z,6.00
2022-12-07T10:44:41.675Z,6.10
2022-12-07T10:45:52.044Z,7.30
2022-12-07T10:46:41.695Z,6.50
2022-12-07T10:47:41.811Z,7.00
2022-12-07T10:48:41.599Z,7.10
2022-12-07T10:49:41.592Z,6.40
2022-12-07T10:50:41.636Z,5.70
2022-12-07T10:51:41.569Z,6.80
2022-12-07T10:52:41.592Z,6.20
2022-12-07T10:53:41.602Z,6.20
2022-12-07T10:54:41.609Z,7.20
2022-12-07T10:55:41.493Z,6.30
2022-12-07T10:56:41.461Z,5.50
2022-12-07T10:57:41.429Z,6.20
2022-12-07T10:58:41.508Z,5.50
2022-12-07T10:59:41.568Z,7.60
2022-12-07T11:00:41.592Z,5.20
2022-12-07T11:01:41.520Z,5.40
2022-12-07T11:02:41.490Z,5.30
2022-12-07T11:03:41.390Z,6.30
2022-12-07T11:04:41.475Z,5.90
2022-12-07T11:05:41.558Z,6.50
2022-12-07T11:06:41.370Z,6.40
2022-12-07T11:07:41.490Z,5.90
2022-12-07T11:08:41.419Z,5.00
2022-12-07T11:10:07.355Z,5.50
2022-12-07T11:10:41.432Z,5.40
2022-12-07T11:11:41.413Z,5.50
2022-12-07T11:12:41.268Z,6.20
2022-12-07T11:13:41.133Z,7.70
2022-12-07T11:14:41.293Z,6.00
2022-12-07T11:15:41.270Z,6.00
2022-12-07T11:16:41.392Z,6.50
2022-12-07T11:17:41.531Z,5.70
2022-12-07T11:18:41.298Z,5.40
2022-12-07T11:19:41.312Z,6.80
2022-12-07T11:20:41.280Z,5.90
2022-12-07T11:21:41.249Z,5.50
2022-12-07T11:22:41.231Z,6.40
2022-12-07T11:23:41.275Z,6.00
2022-12-07T11:24:41.219Z,5.90
2022-12-07T11:25:41.142Z,6.00
2022-12-07T11:26:41.119Z,5.90
2022-12-07T11:27:41.107Z,5.50
2022-12-07T11:28:41.168Z,5.90
2022-12-07T11:29:41.411Z,6.20
2022-12-07T11:30:41.122Z,5.00
2022-12-07T11:31:41.259Z,5.20
2022-12-07T11:32:41.080Z,6.80
2022-12-07T11:33:41.123Z,5.80
2022-12-07T11:34:42.142Z,6.70
2022-12-07T11:35:41.439Z,4.60
2022-12-07T11:36:41.024Z,5.90
2022-12-07T11:38:41.160Z,6.60
2022-12-07T11:39:41.022Z,5.90
2022-12-07T11:40:41.072Z,6.90
2022-12-07T11:41:41.091Z,6.80
2022-12-07T11:42:41.024Z,6.80
2022-12-07T11:43:41.056Z,6.00
2022-12-07T11:44:40.998Z,5.00
2022-12-07T11:45:41.002Z,5.10
2022-12-07T11:46:40.967Z,6.10
2022-12-07T11:47:41.095Z,5.50
2022-12-07T11:48:41.009Z,5.90
2022-12-07T11:49:40.918Z,6.00
2022-12-07T11:50:41.002Z,6.60
2022-12-07T11:51:40.907Z,5.50
2022-12-07T11:52:40.975Z,5.80
2022-12-07T11:53:40.938Z,5.30
2022-12-07T11:54:40.863Z,5.60
2022-12-07T11:55:40.944Z,6.60
2022-12-07T11:56:40.895Z,6.00
2022-12-07T11:57:41.109Z,6.10
2022-12-07T11:58:40.927Z,5.70
2022-12-07T11:59:40.963Z,6.00
2022-12-07T12:00:40.830Z,7.40
2022-12-07T12:01:40.873Z,6.90
2022-12-07T12:02:40.826Z,6.10
2022-12-07T12:03:40.821Z,6.70
2022-12-07T12:04:40.905Z,6.00
2022-12-07T12:05:40.789Z,6.00
2022-12-07T12:06:40.729Z,6.10
2022-12-07T12:09:41.270Z,7.30
2022-12-07T12:10:41.801Z,5.20
2022-12-07T12:11:41.033Z,6.20
2022-12-07T12:14:43.339Z,5.90
2022-12-07T12:15:40.769Z,6.00
2022-12-07T12:17:01.535Z,6.70
2022-12-07T12:17:40.630Z,8.90
2022-12-07T12:18:40.661Z,6.10
2022-12-07T12:19:40.668Z,5.70
2022-12-07T12:20:40.600Z,7.90
2022-12-07T12:21:40.695Z,5.90
2022-12-07T12:22:40.764Z,6.80
2022-12-07T12:23:40.644Z,6.70
2022-12-07T12:24:40.513Z,9.10
2022-12-07T12:25:40.606Z,7.00
2022-12-07T12:26:40.485Z,7.90
2022-12-07T12:27:40.499Z,6.70
2022-12-07T12:28:46.709Z,7.90
2022-12-07T12:29:40.623Z,8.30
2022-12-07T12:30:40.596Z,7.40
2022-12-07T12:31:40.735Z,6.50
2022-12-07T12:32:40.447Z,6.90
2022-12-07T12:33:40.489Z,6.70
2022-12-07T12:34:44.071Z,6.50
2022-12-07T12:35:40.535Z,6.90
2022-12-07T12:36:40.473Z,7.10
2022-12-07T12:37:40.356Z,6.30
2022-12-07T12:38:40.169Z,8.00
2022-12-07T12:39:40.368Z,8.40
2022-12-07T12:40:44.255Z,6.90
2022-12-07T12:41:40.399Z,6.50
2022-12-07T12:42:40.311Z,7.70
2022-12-07T12:43:40.297Z,12.50
2022-12-07T12:44:40.584Z,13.60
2022-12-07T12:45:40.464Z,12.80
2022-12-07T12:46:42.946Z,11.30
2022-12-07T12:47:40.261Z,8.30
2022-12-07T12:48:40.285Z,11.90
2022-12-07T12:49:40.258Z,14.30
2022-12-07T12:50:40.454Z,8.60
2022-12-07T12:51:40.257Z,10.10
2022-12-07T12:52:42.478Z,10.20
2022-12-07T12:53:40.304Z,7.50
2022-12-07T12:54:40.304Z,8.10
2022-12-07T12:55:40.201Z,9.10
2022-12-07T12:56:40.181Z,9.60
2022-12-07T12:57:40.143Z,12.30
2022-12-07T12:58:40.259Z,8.40
2022-12-07T12:59:40.278Z,9.70
2022-12-07T13:00:40.162Z,8.50
2022-12-07T13:01:41.265Z,12.50
2022-12-07T13:02:40.154Z,18.00
2022-12-07T13:03:39.978Z,28.20
2022-12-07T13:04:40.373Z,25.40
2022-12-07T13:05:40.080Z,18.00
2022-12-07T13:06:40.127Z,21.60
2022-12-07T13:07:40.087Z,23.60
2022-12-07T13:08:39.962Z,18.50
2022-12-07T13:09:39.998Z,18.90
2022-12-07T13:10:39.963Z,14.00
2022-12-07T13:11:40.106Z,19.40
2022-12-07T13:12:39.895Z,13.30
2022-12-07T13:13:40.031Z,13.90
2022-12-07T13:14:39.845Z,14.90
2022-12-07T13:15:39.801Z,16.10
2022-12-07T13:16:42.996Z,16.00
2022-12-07T13:17:39.803Z,17.70
2022-12-07T13:18:39.809Z,12.40
2022-12-07T13:19:39.808Z,16.90
2022-12-07T13:20:39.774Z,23.60
2022-12-07T13:21:40.003Z,27.40
2022-12-07T13:22:39.979Z,22.90